sensor_id;sensor_type;location;lat;lon;timestamp;pressure;altitude;pressure_sealevel;temperature;humidity
60099;BME280;62818;49.394;8.686;2022-10-04T00:00:24;101149.00;;;9.84;100.00
60099;BME280;62818;49.394;8.686;2022-10-04T00:02:50;101153.16;;;9.51;100.00
60099;BME280;62818;49.394;8.686;2022-10-04T00:05:24;101147.75;;;9.43;100.00
60099;BME280;62818;49.394;8.686;2022-10-04T00:06:28;101145.13;;;9.78;100.00
60099;BME280;62818;49.394;8.686;2022-10-04T00:07:43;101150.97;;;9.64;100.00
60099;BME280;62818;49.394;8.686;2022-10-04T00:09:05;101143.53;;;9.85;100.00
60099;BME280;62818;49.394;8.686;2022-10-04T00:10:27;101149.31;;;9.18;100.00
60099;BME280;62818;49.394;8.686;2022-10-04T00:11:36;101142.09;;;9.38;100.00
60099;BME280;62818;49.394;8.686;2022-10-04T00:12:48;101137.13;;;9.70;100.00
60099;BME280;62818;49.394;8.686;2022-10-04T00:13:55;101138.34;;;9.58;100.00
60099;BME280;62818;49.394;8.686;2022-10-04T00:15:18;101141.03;;;9.04;100.00
60099;BME280;62818;49.394;8.686;2022-10-04T00:16:34;101150.25;;;9.27;100.00
60099;BME280;62818;49.394;8.686;2022-10-04T00:17:40;101148.31;;;9.64;100.00
60099;BME280;62818;49.394;8.686;2022-10-04T00:18:44;101138.56;;;9.47;100.00
60099;BME280;62818;49.394;8.686;2022-10-04T00:19:51;101141.91;;;9.22;100.00
60099;BME280;62818;49.394;8.686;2022-10-04T00:24:26;101129.03;;;8.82;100.00
60099;BME280;62818;49.394;8.686;2022-10-04T00:25:34;101131.34;;;9.22;100.00
60099;BME280;62818;49.394;8.686;2022-10-04T00:27:39;101136.94;;;8.91;100.00
60099;BME280;62818;49.394;8.686;2022-10-04T00:29:35;101132.22;;;9.13;100.00
60099;BME280;62818;49.394;8.686;2022-10-04T00:30:38;101131.22;;;8.96;100.00
60099;BME280;62818;49.394;8.686;2022-10-04T00:33:35;101141.22;;;9.20;100.00
60099;BME280;62818;49.394;8.686;2022-10-04T00:34:46;101143.13;;;9.10;100.00
60099;BME280;62818;49.394;8.686;2022-10-04T00:35:51;101138.50;;;8.84;100.00
60099;BME280;62818;49.394;8.686;2022-10-04T00:36:55;101141.41;;;8.81;100.00
60099;BME280;62818;49.394;8.686;2022-10-04T00:39:16;101140.72;;;9.16;100.00
60099;BME280;62818;49.394;8.686;2022-10-04T00:40:27;101133.19;;;8.84;100.00
60099;BME280;62818;49.394;8.686;2022-10-04T00:43:55;101136.66;;;9.12;100.00
60099;BME280;62818;49.394;8.686;2022-10-04T00:46:30;101143.16;;;9.27;100.00
60099;BME280;62818;49.394;8.686;2022-10-04T00:49:00;101136.38;;;9.42;100.00
60099;BME280;62818;49.394;8.686;2022-10-04T00:50:19;101133.16;;;9.21;100.00
60099;BME280;62818;49.394;8.686;2022-10-04T00:51:42;101140.16;;;8.85;100.00
60099;BME280;62818;49.394;8.686;2022-10-04T00:52:55;101133.19;;;8.84;100.00
60099;BME280;62818;49.394;8.686;2022-10-04T00:55:06;101141.91;;;9.22;100.00
60099;BME280;62818;49.394;8.686;2022-10-04T00:56:55;101137.41;;;9.32;100.00
60099;BME280;62818;49.394;8.686;2022-10-04T00:57:49;101141.16;;;9.12;100.00
60099;BME280;62818;49.394;8.686;2022-10-04T01:00:05;101141.53;;;8.89;100.00
60099;BME280;62818;49.394;8.686;2022-10-04T01:01:11;101139.63;;;9.09;100.00
60099;BME280;62818;49.394;8.686;2022-10-04T01:03:26;101135.75;;;8.76;100.00
60099;BME280;62818;49.394;8.686;2022-10-04T01:05:00;101138.34;;;8.86;100.00
60099;BME280;62818;49.394;8.686;2022-10-04T01:06:10;101138.31;;;9.23;100.00
60099;BME280;62818;49.394;8.686;2022-10-04T01:07:15;101130.56;;;9.12;100.00
60099;BME280;62818;49.394;8.686;2022-10-04T01:08:31;101125.38;;;8.92;100.00
60099;BME280;62818;49.394;8.686;2022-10-04T01:09:41;101125.28;;;9.12;100.00
60099;BME280;62818;49.394;8.686;2022-10-04T01:13:53;101125.81;;;9.15;100.00
60099;BME280;62818;49.394;8.686;2022-10-04T01:16:27;101125.56;;;9.53;100.00
60099;BME280;62818;49.394;8.686;2022-10-04T01:17:32;101122.25;;;9.07;100.00
60099;BME280;62818;49.394;8.686;2022-10-04T01:18:36;101118.56;;;9.17;100.00
60099;BME280;62818;49.394;8.686;2022-10-04T01:19:49;101118.06;;;9.31;100.00
60099;BME280;62818;49.394;8.686;2022-10-04T01:20:56;101117.94;;;9.23;100.00
60099;BME280;62818;49.394;8.686;2022-10-04T01:23:11;101122.91;;;9.36;100.00
60099;BME280;62818;49.394;8.686;2022-10-04T01:24:41;101115.00;;;9.09;100.00
60099;BME280;62818;49.394;8.686;2022-10-04T01:25:51;101117.63;;;8.81;100.00
60099;BME280;62818;49.394;8.686;2022-10-04T01:26:52;101110.97;;;8.77;100.00
60099;BME280;62818;49.394;8.686;2022-10-04T01:27:57;101107.00;;;9.18;100.00
60099;BME280;62818;49.394;8.686;2022-10-04T01:28:58;101112.25;;;9.01;100.00
60099;BME280;62818;49.394;8.686;2022-10-04T01:30:10;101110.84;;;8.79;100.00
60099;BME280;62818;49.394;8.686;2022-10-04T01:31:15;101114.09;;;9.18;100.00
60099;BME280;62818;49.394;8.686;2022-10-04T01:32:18;101103.28;;;9.11;100.00
60099;BME280;62818;49.394;8.686;2022-10-04T01:33:19;101094.81;;;8.80;100.00
60099;BME280;62818;49.394;8.686;2022-10-04T01:34:21;101093.16;;;8.79;100.00
60099;BME280;62818;49.394;8.686;2022-10-04T01:35:27;101092.94;;;9.18;100.00
60099;BME280;62818;49.394;8.686;2022-10-04T01:36:33;101093.06;;;8.99;100.00
60099;BME280;62818;49.394;8.686;2022-10-04T01:37:37;101087.38;;;9.21;100.00
60099;BME280;62818;49.394;8.686;2022-10-04T01:38:38;101094.72;;;9.00;100.00
60099;BME280;62818;49.394;8.686;2022-10-04T01:39:39;101087.84;;;9.34;100.00
60099;BME280;62818;49.394;8.686;2022-10-04T01:40:53;101087.84;;;9.07;100.00
60099;BME280;62818;49.394;8.686;2022-10-04T01:42:17;101091.78;;;8.75;100.00
60099;BME280;62818;49.394;8.686;2022-10-04T01:43:31;101090.75;;;9.13;100.00
60099;BME280;62818;49.394;8.686;2022-10-04T01:46:41;101082.03;;;8.76;100.00
60099;BME280;62818;49.394;8.686;2022-10-04T01:47:55;101074.97;;;8.76;100.00
60099;BME280;62818;49.394;8.686;2022-10-04T01:49:03;101064.94;;;8.98;100.00
60099;BME280;62818;49.394;8.686;2022-10-04T01:50:20;101076.28;;;8.63;100.00
60099;BME280;62818;49.394;8.686;2022-10-04T01:51:42;101069.63;;;8.59;100.00
60099;BME280;62818;49.394;8.686;2022-10-04T01:52:55;101069.84;;;8.92;100.00
60099;BME280;62818;49.394;8.686;2022-10-04T01:54:11;101073.88;;;8.69;100.00
60099;BME280;62818;49.394;8.686;2022-10-04T01:55:23;101073.38;;;8.83;100.00
60099;BME280;62818;49.394;8.686;2022-10-04T01:56:32;101077.22;;;8.62;100.00
60099;BME280;62818;49.394;8.686;2022-10-04T01:57:45;101066.50;;;8.90;100.00
60099;BME280;62818;49.394;8.686;2022-10-04T01:59:05;101065.72;;;8.53;100.00
60099;BME280;62818;49.394;8.686;2022-10-04T02:00:15;101065.97;;;8.60;100.00
60099;BME280;62818;49.394;8.686;2022-10-04T02:01:33;101054.69;;;8.67;100.00
60099;BME280;62818;49.394;8.686;2022-10-04T02:02:57;101057.09;;;9.06;100.00
60099;BME280;62818;49.394;8.686;2022-10-04T02:04:08;101062.78;;;8.83;100.00
60099;BME280;62818;49.394;8.686;2022-10-04T02:05:30;101063.66;;;9.02;100.00
60099;BME280;62818;49.394;8.686;2022-10-04T02:06:40;101061.91;;;8.92;100.00
60099;BME280;62818;49.394;8.686;2022-10-04T02:07:45;101053.91;;;8.84;100.00
60099;BME280;62818;49.394;8.686;2022-10-04T02:08:52;101066.34;;;8.74;100.00
60099;BME280;62818;49.394;8.686;2022-10-04T02:09:59;101063.69;;;8.74;100.00
60099;BME280;62818;49.394;8.686;2022-10-04T02:11:05;101046.03;;;8.92;100.00
60099;BME280;62818;49.394;8.686;2022-10-04T02:12:06;101052.63;;;8.61;100.00
60099;BME280;62818;49.394;8.686;2022-10-04T02:13:14;101053.75;;;8.59;100.00
60099;BME280;62818;49.394;8.686;2022-10-04T02:14:25;101058.75;;;8.89;100.00
60099;BME280;62818;49.394;8.686;2022-10-04T02:15:33;101042.59;;;8.92;100.00
60099;BME280;62818;49.394;8.686;2022-10-04T02:16:38;101049.88;;;8.53;100.00
60099;BME280;62818;49.394;8.686;2022-10-04T02:17:41;101051.84;;;8.51;100.00
60099;BME280;62818;49.394;8.686;2022-10-04T02:18:46;101045.03;;;8.76;100.00
60099;BME280;62818;49.394;8.686;2022-10-04T02:19:52;101047.44;;;8.69;100.00
60099;BME280;62818;49.394;8.686;2022-10-04T02:20:54;101057.84;;;8.71;100.00
60099;BME280;62818;49.394;8.686;2022-10-04T02:22:02;101047.91;;;9.10;100.00
60099;BME280;62818;49.394;8.686;2022-10-04T02:23:05;101056.09;;;8.89;100.00
60099;BME280;62818;49.394;8.686;2022-10-04T02:24:08;101053.47;;;8.89;100.00
60099;BME280;62818;49.394;8.686;2022-10-04T02:25:13;101052.34;;;8.91;100.00
60099;BME280;62818;49.394;8.686;2022-10-04T02:26:17;101053.72;;;9.13;100.00
60099;BME280;62818;49.394;8.686;2022-10-04T02:27:25;101043.97;;;9.31;100.00
60099;BME280;62818;49.394;8.686;2022-10-04T02:28:34;101046.06;;;9.10;100.00
60099;BME280;62818;49.394;8.686;2022-10-04T02:29:38;101046.44;;;8.70;100.00
60099;BME280;62818;49.394;8.686;2022-10-04T02:30:42;101040.25;;;8.89;100.00
60099;BME280;62818;49.394;8.686;2022-10-04T02:32:09;101038.50;;;8.98;100.00
60099;BME280;62818;49.394;8.686;2022-10-04T02:33:31;101040.91;;;8.64;100.00
60099;BME280;62818;49.394;8.686;2022-10-04T02:34:33;101031.84;;;8.93;100.00
60099;BME280;62818;49.394;8.686;2022-10-04T02:35:45;101032.31;;;9.07;100.00
60099;BME280;62818;49.394;8.686;2022-10-04T02:36:47;101026.84;;;8.90;100.00
60099;BME280;62818;49.394;8.686;2022-10-04T02:38:00;101021.66;;;8.54;100.00
60099;BME280;62818;49.394;8.686;2022-10-04T02:39:12;101017.28;;;8.89;100.00
60099;BME280;62818;49.394;8.686;2022-10-04T02:40:17;101014.63;;;8.89;100.00
60099;BME280;62818;49.394;8.686;2022-10-04T02:43:09;101018.47;;;8.95;100.00
60099;BME280;62818;49.394;8.686;2022-10-04T02:45:28;101030.09;;;8.84;100.00
60099;BME280;62818;49.394;8.686;2022-10-04T02:49:00;101034.44;;;8.85;100.00
60099;BME280;62818;49.394;8.686;2022-10-04T02:50:18;101036.78;;;8.61;100.00
60099;BME280;62818;49.394;8.686;2022-10-04T02:51:48;101035.03;;;8.52;100.00
60099;BME280;62818;49.394;8.686;2022-10-04T02:53:32;101017.41;;;8.88;100.00
60099;BME280;62818;49.394;8.686;2022-10-04T02:56:11;101015.66;;;8.61;100.00
60099;BME280;62818;49.394;8.686;2022-10-04T02:57:21;101014.84;;;8.78;100.00
60099;BME280;62818;49.394;8.686;2022-10-04T02:58:24;101017.97;;;8.37;100.00
60099;BME280;62818;49.394;8.686;2022-10-04T02:59:27;101019.84;;;8.54;100.00
60099;BME280;62818;49.394;8.686;2022-10-04T03:00:31;101019.75;;;8.91;100.00
60099;BME280;62818;49.394;8.686;2022-10-04T03:01:54;101021.16;;;8.68;100.00
60099;BME280;62818;49.394;8.686;2022-10-04T03:04:27;101021.09;;;8.77;100.00
60099;BME280;62818;49.394;8.686;2022-10-04T03:05:30;101032.31;;;8.62;100.00
60099;BME280;62818;49.394;8.686;2022-10-04T03:06:32;101026.75;;;9.10;100.00
60099;BME280;62818;49.394;8.686;2022-10-04T03:07:34;101018.88;;;9.18;100.00
60099;BME280;62818;49.394;8.686;2022-10-04T03:09:44;101028.16;;;8.59;100.00
60099;BME280;62818;49.394;8.686;2022-10-04T03:10:50;101022.06;;;8.59;100.00
60099;BME280;62818;49.394;8.686;2022-10-04T03:11:54;101017.88;;;9.01;100.00
60099;BME280;62818;49.394;8.686;2022-10-04T03:12:55;101019.94;;;8.89;100.00
60099;BME280;62818;49.394;8.686;2022-10-04T03:13:58;101020.22;;;8.86;100.00
60099;BME280;62818;49.394;8.686;2022-10-04T03:15:00;101024.31;;;8.99;100.00
60099;BME280;62818;49.394;8.686;2022-10-04T03:16:04;101026.91;;;8.63;100.00
60099;BME280;62818;49.394;8.686;2022-10-04T03:17:06;101022.78;;;8.78;100.00
60099;BME280;62818;49.394;8.686;2022-10-04T03:18:11;101022.41;;;8.91;100.00
60099;BME280;62818;49.394;8.686;2022-10-04T03:19:15;101026.31;;;8.69;100.00
60099;BME280;62818;49.394;8.686;2022-10-04T03:20:18;101019.56;;;8.75;100.00
60099;BME280;62818;49.394;8.686;2022-10-04T03:21:20;101016.94;;;8.75;100.00
60099;BME280;62818;49.394;8.686;2022-10-04T03:22:27;101016.53;;;8.52;100.00
60099;BME280;62818;49.394;8.686;2022-10-04T03:23:29;101018.22;;;8.71;100.00
60099;BME280;62818;49.394;8.686;2022-10-04T03:24:38;101002.50;;;8.69;100.00
60099;BME280;62818;49.394;8.686;2022-10-04T03:25:55;101010.44;;;8.42;100.00
60099;BME280;62818;49.394;8.686;2022-10-04T03:27:02;101019.16;;;8.52;100.00
60099;BME280;62818;49.394;8.686;2022-10-04T03:28:13;101017.94;;;8.47;100.00
60099;BME280;62818;49.394;8.686;2022-10-04T03:29:17;101015.69;;;8.79;100.00
60099;BME280;62818;49.394;8.686;2022-10-04T03:30:21;101017.72;;;8.85;100.00
60099;BME280;62818;49.394;8.686;2022-10-04T03:31:23;101013.28;;;8.58;100.00
60099;BME280;62818;49.394;8.686;2022-10-04T03:32:29;101015.53;;;8.80;100.00
60099;BME280;62818;49.394;8.686;2022-10-04T03:33:33;101007.91;;;8.95;100.00
60099;BME280;62818;49.394;8.686;2022-10-04T03:34:40;101010.38;;;8.61;100.00
60099;BME280;62818;49.394;8.686;2022-10-04T03:35:50;101007.13;;;8.40;100.00
60099;BME280;62818;49.394;8.686;2022-10-04T03:36:54;100998.66;;;8.81;100.00
60099;BME280;62818;49.394;8.686;2022-10-04T03:38:04;100992.38;;;8.65;100.00
60099;BME280;62818;49.394;8.686;2022-10-04T03:39:10;100992.59;;;8.99;100.00
60099;BME280;62818;49.394;8.686;2022-10-04T03:40:26;100994.56;;;8.97;100.00
60099;BME280;62818;49.394;8.686;2022-10-04T03:41:30;100991.25;;;8.67;100.00
60099;BME280;62818;49.394;8.686;2022-10-04T03:42:35;100989.63;;;9.02;100.00
60099;BME280;62818;49.394;8.686;2022-10-04T03:43:45;101000.31;;;9.10;100.00
60099;BME280;62818;49.394;8.686;2022-10-04T03:45:00;100990.88;;;8.62;100.00
60099;BME280;62818;49.394;8.686;2022-10-04T03:46:07;100995.13;;;8.90;100.00
60099;BME280;62818;49.394;8.686;2022-10-04T03:47:14;101006.72;;;8.62;100.00
60099;BME280;62818;49.394;8.686;2022-10-04T03:48:36;100999.44;;;8.74;100.00
60099;BME280;62818;49.394;8.686;2022-10-04T03:49:39;100998.78;;;8.89;100.00
60099;BME280;62818;49.394;8.686;2022-10-04T03:50:45;101008.47;;;8.44;100.00
60099;BME280;62818;49.394;8.686;2022-10-04T03:51:48;101007.19;;;8.75;100.00
60099;BME280;62818;49.394;8.686;2022-10-04T03:52:53;101013.88;;;8.97;100.00
60099;BME280;62818;49.394;8.686;2022-10-04T03:53:58;101004.13;;;8.98;100.00
60099;BME280;62818;49.394;8.686;2022-10-04T03:55:04;101009.63;;;8.86;100.00
60099;BME280;62818;49.394;8.686;2022-10-04T03:56:27;101016.81;;;8.49;100.00
60099;BME280;62818;49.394;8.686;2022-10-04T03:57:33;101015.25;;;8.56;100.00
60099;BME280;62818;49.394;8.686;2022-10-04T03:58:36;101012.88;;;8.80;100.00
60099;BME280;62818;49.394;8.686;2022-10-04T03:59:37;101016.91;;;8.57;100.00
60099;BME280;62818;49.394;8.686;2022-10-04T04:00:42;101018.31;;;8.52;100.00
60099;BME280;62818;49.394;8.686;2022-10-04T04:02:29;101021.31;;;8.39;100.00
60099;BME280;62818;49.394;8.686;2022-10-04T04:04:16;101031.81;;;8.49;100.00
60099;BME280;62818;49.394;8.686;2022-10-04T04:05:45;101025.63;;;8.67;100.00
60099;BME280;62818;49.394;8.686;2022-10-04T04:08:34;101028.69;;;8.36;100.00
60099;BME280;62818;49.394;8.686;2022-10-04T04:10:57;101028.69;;;8.63;100.00
60099;BME280;62818;49.394;8.686;2022-10-04T04:12:53;101025.97;;;8.72;100.00
60099;BME280;62818;49.394;8.686;2022-10-04T04:15:00;101034.06;;;8.98;100.00
60099;BME280;62818;49.394;8.686;2022-10-04T04:16:03;101032.56;;;8.68;100.00
60099;BME280;62818;49.394;8.686;2022-10-04T04:18:40;101028.22;;;8.94;100.00
60099;BME280;62818;49.394;8.686;2022-10-04T04:19:44;101022.25;;;8.92;100.00
60099;BME280;62818;49.394;8.686;2022-10-04T04:20:47;101019.22;;;8.70;100.00
60099;BME280;62818;49.394;8.686;2022-10-04T04:21:55;101018.38;;;8.69;100.00
60099;BME280;62818;49.394;8.686;2022-10-04T04:22:59;101017.06;;;9.01;100.00
60099;BME280;62818;49.394;8.686;2022-10-04T04:24:17;101008.34;;;8.90;100.00
60099;BME280;62818;49.394;8.686;2022-10-04T04:25:25;101020.09;;;8.61;100.00
60099;BME280;62818;49.394;8.686;2022-10-04T04:26:40;101018.13;;;8.63;100.00
60099;BME280;62818;49.394;8.686;2022-10-04T04:27:48;101015.72;;;8.97;100.00
60099;BME280;62818;49.394;8.686;2022-10-04T04:29:01;101022.91;;;8.77;100.00
60099;BME280;62818;49.394;8.686;2022-10-04T04:30:07;101019.06;;;8.71;100.00
60099;BME280;62818;49.394;8.686;2022-10-04T04:32:43;101020.47;;;8.39;100.00
60099;BME280;62818;49.394;8.686;2022-10-04T04:34:21;101022.72;;;8.61;100.00
60099;BME280;62818;49.394;8.686;2022-10-04T04:35:33;101023.22;;;8.47;100.00
60099;BME280;62818;49.394;8.686;2022-10-04T04:36:39;101022.09;;;8.76;100.00
60099;BME280;62818;49.394;8.686;2022-10-04T04:37:40;101020.91;;;9.06;100.00
60099;BME280;62818;49.394;8.686;2022-10-04T04:38:44;101014.66;;;8.62;100.00
60099;BME280;62818;49.394;8.686;2022-10-04T04:40:23;101022.63;;;8.53;100.00
60099;BME280;62818;49.394;8.686;2022-10-04T04:41:30;101027.09;;;8.52;100.00
60099;BME280;62818;49.394;8.686;2022-10-04T04:42:35;101028.19;;;8.77;100.00
60099;BME280;62818;49.394;8.686;2022-10-04T04:43:42;101031.75;;;8.68;100.00
60099;BME280;62818;49.394;8.686;2022-10-04T04:44:46;101030.00;;;8.49;100.00
60099;BME280;62818;49.394;8.686;2022-10-04T04:45:50;101028.84;;;8.61;100.00
60099;BME280;62818;49.394;8.686;2022-10-04T04:46:52;101027.53;;;8.92;100.00
60099;BME280;62818;49.394;8.686;2022-10-04T04:48:01;101026.09;;;8.80;100.00
60099;BME280;62818;49.394;8.686;2022-10-04T04:49:06;101028.94;;;8.97;100.00
60099;BME280;62818;49.394;8.686;2022-10-04T04:50:14;101028.94;;;8.69;100.00
60099;BME280;62818;49.394;8.686;2022-10-04T04:51:22;101033.19;;;8.53;100.00
60099;BME280;62818;49.394;8.686;2022-10-04T04:52:28;101031.81;;;8.49;100.00
60099;BME280;62818;49.394;8.686;2022-10-04T04:53:29;101032.34;;;8.79;100.00
60099;BME280;62818;49.394;8.686;2022-10-04T04:54:30;101024.53;;;8.87;100.00
60099;BME280;62818;49.394;8.686;2022-10-04T04:55:35;101030.03;;;8.76;100.00
60099;BME280;62818;49.394;8.686;2022-10-04T04:56:43;101031.25;;;9.00;100.00
60099;BME280;62818;49.394;8.686;2022-10-04T04:57:50;101026.75;;;9.10;100.00
60099;BME280;62818;49.394;8.686;2022-10-04T04:58:57;101024.91;;;9.28;100.00
60099;BME280;62818;49.394;8.686;2022-10-04T05:00:05;101026.34;;;9.05;100.00
60099;BME280;62818;49.394;8.686;2022-10-04T05:01:28;101023.13;;;8.83;100.00
60099;BME280;62818;49.394;8.686;2022-10-04T05:02:37;101023.53;;;8.88;100.00
60099;BME280;62818;49.394;8.686;2022-10-04T05:05:26;101021.34;;;8.84;100.00
60099;BME280;62818;49.394;8.686;2022-10-04T05:06:34;101018.09;;;9.08;100.00
60099;BME280;62818;49.394;8.686;2022-10-04T05:07:37;101013.75;;;9.16;100.00
60099;BME280;62818;49.394;8.686;2022-10-04T05:08:37;101012.00;;;9.07;100.00
60099;BME280;62818;49.394;8.686;2022-10-04T05:09:40;101017.50;;;8.78;100.00
60099;BME280;62818;49.394;8.686;2022-10-04T05:10:48;101023.19;;;8.56;100.00
60099;BME280;62818;49.394;8.686;2022-10-04T05:12:11;101016.81;;;8.76;100.00
60099;BME280;62818;49.394;8.686;2022-10-04T05:13:17;101022.09;;;8.76;100.00
60099;BME280;62818;49.394;8.686;2022-10-04T05:14:20;101033.09;;;8.72;100.00
60099;BME280;62818;49.394;8.686;2022-10-04T05:15:21;101025.56;;;8.94;100.00
60099;BME280;62818;49.394;8.686;2022-10-04T05:17:40;101022.25;;;8.92;100.00
60099;BME280;62818;49.394;8.686;2022-10-04T05:18:40;101027.75;;;8.81;100.00
60099;BME280;62818;49.394;8.686;2022-10-04T05:19:44;101012.78;;;8.72;100.00
60099;BME280;62818;49.394;8.686;2022-10-04T05:20:52;101014.50;;;8.64;100.00
60099;BME280;62818;49.394;8.686;2022-10-04T05:21:55;101010.88;;;8.65;100.00
60099;BME280;62818;49.394;8.686;2022-10-04T05:23:00;101012.34;;;8.94;100.00
60099;BME280;62818;49.394;8.686;2022-10-04T05:24:32;101013.44;;;9.02;100.00
60099;BME280;62818;49.394;8.686;2022-10-04T05:25:36;101014.84;;;8.78;100.00
60099;BME280;62818;49.394;8.686;2022-10-04T05:26:36;101010.53;;;8.95;100.00
60099;BME280;62818;49.394;8.686;2022-10-04T05:27:43;101014.44;;;9.18;100.00
60099;BME280;62818;49.394;8.686;2022-10-04T05:28:46;101022.22;;;9.20;100.00
60099;BME280;62818;49.394;8.686;2022-10-04T05:33:06;101018.25;;;8.88;100.00
60099;BME280;62818;49.394;8.686;2022-10-04T05:34:21;101019.78;;;9.09;100.00
60099;BME280;62818;49.394;8.686;2022-10-04T05:35:25;101013.59;;;9.18;100.00
60099;BME280;62818;49.394;8.686;2022-10-04T05:38:03;101022.81;;;9.14;100.00
60099;BME280;62818;49.394;8.686;2022-10-04T05:41:05;101025.34;;;9.06;100.00
60099;BME280;62818;49.394;8.686;2022-10-04T05:42:43;101028.47;;;9.19;100.00
60099;BME280;62818;49.394;8.686;2022-10-04T05:43:49;101026.06;;;9.25;100.00
60099;BME280;62818;49.394;8.686;2022-10-04T05:44:54;101022.34;;;9.01;100.00
60099;BME280;62818;49.394;8.686;2022-10-04T05:46:27;101026.75;;;9.10;100.00
60099;BME280;62818;49.394;8.686;2022-10-04T05:47:31;101024.13;;;9.27;100.00
60099;BME280;62818;49.394;8.686;2022-10-04T05:48:38;101027.28;;;9.31;100.00
60099;BME280;62818;49.394;8.686;2022-10-04T05:49:45;101016.91;;;9.20;100.00
60099;BME280;62818;49.394;8.686;2022-10-04T05:50:47;101019.34;;;9.31;100.00
60099;BME280;62818;49.394;8.686;2022-10-04T05:51:53;101025.16;;;9.17;100.00
60099;BME280;62818;49.394;8.686;2022-10-04T05:54:24;101020.47;;;9.28;100.00
60099;BME280;62818;49.394;8.686;2022-10-04T05:57:40;101013.97;;;9.23;100.00
60099;BME280;62818;49.394;8.686;2022-10-04T06:00:12;101020.84;;;9.16;100.00
60099;BME280;62818;49.394;8.686;2022-10-04T06:04:07;101011.56;;;9.12;100.00
60099;BME280;62818;49.394;8.686;2022-10-04T06:08:07;101014.66;;;9.25;100.00
60099;BME280;62818;49.394;8.686;2022-10-04T06:12:50;101028.25;;;9.30;100.00
60099;BME280;62818;49.394;8.686;2022-10-04T06:22:13;101024.53;;;8.87;100.00
60099;BME280;62818;49.394;8.686;2022-10-04T06:23:19;101031.88;;;9.29;100.00
60099;BME280;62818;49.394;8.686;2022-10-04T06:24:26;101025.75;;;9.28;100.00
60099;BME280;62818;49.394;8.686;2022-10-04T06:25:38;101035.41;;;9.02;100.00
60099;BME280;62818;49.394;8.686;2022-10-04T06:26:52;101035.22;;;9.31;100.00
60099;BME280;62818;49.394;8.686;2022-10-04T06:29:33;101035.03;;;9.15;100.00
60099;BME280;62818;49.394;8.686;2022-10-04T06:35:14;101050.69;;;9.26;100.00
60099;BME280;62818;49.394;8.686;2022-10-04T06:36:32;101050.22;;;8.95;100.00
60099;BME280;62818;49.394;8.686;2022-10-04T06:40:52;101053.88;;;9.47;100.00
60099;BME280;62818;49.394;8.686;2022-10-04T06:42:44;101047.47;;;9.32;100.00
60099;BME280;62818;49.394;8.686;2022-10-04T06:46:03;101049.28;;;9.49;100.00
60099;BME280;62818;49.394;8.686;2022-10-04T06:51:54;101031.59;;;9.32;100.00
60099;BME280;62818;49.394;8.686;2022-10-04T06:53:32;101026.03;;;12.02;100.00
60099;BME280;62818;49.394;8.686;2022-10-04T07:01:27;101041.53;;;10.16;100.00
60099;BME280;62818;49.394;8.686;2022-10-04T07:02:42;101038.31;;;10.30;100.00
60099;BME280;62818;49.394;8.686;2022-10-04T07:05:47;101038.50;;;10.11;100.00
60099;BME280;62818;49.394;8.686;2022-10-04T07:08:48;101054.59;;;10.43;100.00
60099;BME280;62818;49.394;8.686;2022-10-04T07:10:29;101048.66;;;9.98;100.00
60099;BME280;62818;49.394;8.686;2022-10-04T07:11:54;101044.97;;;9.91;100.00
60099;BME280;62818;49.394;8.686;2022-10-04T07:13:15;101040.75;;;10.24;100.00
60099;BME280;62818;49.394;8.686;2022-10-04T07:14:34;101042.88;;;10.20;100.00
60099;BME280;62818;49.394;8.686;2022-10-04T07:16:01;101044.03;;;10.52;100.00
60099;BME280;62818;49.394;8.686;2022-10-04T07:17:16;101054.88;;;10.32;100.00
60099;BME280;62818;49.394;8.686;2022-10-04T07:18:30;101053.97;;;10.50;100.00
60099;BME280;62818;49.394;8.686;2022-10-04T07:19:49;101057.13;;;10.02;100.00
60099;BME280;62818;49.394;8.686;2022-10-04T07:21:01;101064.19;;;10.11;100.00
60099;BME280;62818;49.394;8.686;2022-10-04T07:23:47;101078.22;;;9.68;100.00
60099;BME280;62818;49.394;8.686;2022-10-04T07:26:13;101067.53;;;9.95;100.00
60099;BME280;62818;49.394;8.686;2022-10-04T07:29:18;101066.81;;;10.36;100.00
60099;BME280;62818;49.394;8.686;2022-10-04T07:30:34;101077.88;;;10.32;100.00
60099;BME280;62818;49.394;8.686;2022-10-04T07:31:52;101070.72;;;10.58;100.00
60099;BME280;62818;49.394;8.686;2022-10-04T07:33:07;101072.66;;;10.82;100.00
60099;BME280;62818;49.394;8.686;2022-10-04T07:34:20;101069.31;;;10.72;100.00
60099;BME280;62818;49.394;8.686;2022-10-04T07:35:37;101078.50;;;10.93;100.00
60099;BME280;62818;49.394;8.686;2022-10-04T07:36:57;101071.75;;;11.07;100.00
60099;BME280;62818;49.394;8.686;2022-10-04T07:38:18;101078.34;;;10.95;100.00
60099;BME280;62818;49.394;8.686;2022-10-04T07:40:38;101081.09;;;10.77;100.00
60099;BME280;62818;49.394;8.686;2022-10-04T07:42:30;101076.88;;;10.59;100.00
60099;BME280;62818;49.394;8.686;2022-10-04T07:43:47;101077.38;;;10.62;100.00
60099;BME280;62818;49.394;8.686;2022-10-04T07:47:44;101074.09;;;11.10;100.00
60099;BME280;62818;49.394;8.686;2022-10-04T07:48:45;101078.03;;;10.98;100.00
60099;BME280;62818;49.394;8.686;2022-10-04T07:49:48;101080.44;;;11.33;100.00
60099;BME280;62818;49.394;8.686;2022-10-04T07:51:10;101083.13;;;11.65;100.00
60099;BME280;62818;49.394;8.686;2022-10-04T07:54:15;101067.53;;;11.95;98.34
60099;BME280;62818;49.394;8.686;2022-10-04T07:55:47;101068.47;;;12.34;96.16
60099;BME280;62818;49.394;8.686;2022-10-04T07:57:00;101077.00;;;11.97;95.84
60099;BME280;62818;49.394;8.686;2022-10-04T08:02:52;101082.91;;;12.94;92.70
60099;BME280;62818;49.394;8.686;2022-10-04T08:05:39;101074.56;;;12.67;95.23
60099;BME280;62818;49.394;8.686;2022-10-04T08:14:10;101080.47;;;13.46;90.37